Time;durP1;ratioP1;P1;durP2;ratioP2;P2;SDS_P1;SDS_P2;PMS_P1;PMS_P2;Temp;Humidity;BMP_temperature;BMP_pressure;BME280_temperature;BME280_humidity;BME280_pressure;Samples;Min_cycle;Max_cycle;Signal;HPM_P1;HPM_P2
2023/08/19 00:01:15;;;;;;;;;;;19.40;99.90;;;;;;5076861;28;19933;-81
2023/08/19 00:03:41;;;;;;;;;;;19.40;99.90;;;;;;5026058;28;19940;-81
2023/08/19 00:06:07;;;;;;;;;;;19.40;99.90;;;;;;5034025;28;20014;-81
2023/08/19 00:08:33;;;;;;;;;;;19.40;99.90;;;;;;5042212;28;19929;-81
2023/08/19 00:10:58;;;;;;;;;;;19.50;99.90;;;;;;5019852;28;19935;-80
2023/08/19 00:13:24;;;;;;;;;;;19.50;99.90;;;;;;5018230;28;19933;-80
2023/08/19 00:15:49;;;;;;;;;;;19.40;99.90;;;;;;5037842;28;20056;-81
2023/08/19 00:18:16;;;;;;;;;;;19.40;99.90;;;;;;5036477;28;19933;-80
2023/08/19 00:20:42;;;;;;;;;;;19.50;99.90;;;;;;5022758;28;19996;-80
2023/08/19 00:23:07;;;;;;;;;;;19.50;99.90;;;;;;5019495;28;20034;-80
2023/08/19 00:25:33;;;;;;;;;;;19.50;99.90;;;;;;5038299;28;19925;-80
2023/08/19 00:27:59;;;;;;;;;;;19.50;99.90;;;;;;5036644;28;19932;-80
2023/08/19 00:30:25;;;;;;;;;;;19.50;99.90;;;;;;5015047;28;19926;-80
2023/08/19 00:32:51;;;;;;;;;;;19.50;99.90;;;;;;5020020;28;19971;-81
2023/08/19 00:35:17;;;;;;;;;;;19.50;99.90;;;;;;5022176;28;19932;-81
2023/08/19 00:37:42;;;;;;;;;;;19.40;99.90;;;;;;5019842;28;20397;-80
2023/08/19 00:40:11;;;;;;;;;;;19.40;99.90;;;;;;5069313;28;19928;-80
2023/08/19 00:42:37;;;;;;;;;;;19.40;99.90;;;;;;5043020;28;19925;-81
2023/08/19 00:45:02;;;;;;;;;;;19.40;99.90;;;;;;5039239;28;20482;-80
2023/08/19 00:47:28;;;;;;;;;;;19.40;99.90;;;;;;5040769;28;19996;-80
2023/08/19 00:49:54;;;;;;;;;;;19.40;99.90;;;;;;5041471;28;19929;-81
2023/08/19 00:52:19;;;;;;;;;;;19.40;99.90;;;;;;5040732;28;20031;-81
2023/08/19 00:54:45;;;;;;;;;;;19.40;99.90;;;;;;5040190;28;20395;-80
2023/08/19 00:57:12;;;;;;;;;;;19.40;99.90;;;;;;5034254;28;20427;-80
2023/08/19 00:59:37;;;;;;;;;;;19.50;99.90;;;;;;5032264;28;19972;-80
2023/08/19 01:02:03;;;;;;;;;;;19.40;99.90;;;;;;5038101;28;19932;-81
2023/08/19 01:04:29;;;;;;;;;;;19.40;99.90;;;;;;5022284;28;20388;-80
2023/08/19 01:07:04;;;;;;;;;;;19.30;99.90;;;;;;5034430;28;19980;-81
2023/08/19 01:09:37;;;;;;;;;;;19.30;99.90;;;;;;5059939;28;19925;-81
2023/08/19 01:12:17;;;;;;;;;;;19.30;99.90;;;;;;5051266;28;19925;-81
2023/08/19 01:14:45;;;;;;;;;;;19.30;99.90;;;;;;5014333;28;19933;-81
2023/08/19 01:17:13;;;;;;;;;;;19.30;99.90;;;;;;5037498;28;20546;-81
2023/08/19 01:19:41;;;;;;;;;;;19.30;99.90;;;;;;5034576;28;19929;-80
2023/08/19 01:22:08;;;;;;;;;;;19.30;99.90;;;;;;5066940;28;19925;-81
2023/08/19 01:24:37;;;;;;;;;;;19.30;99.90;;;;;;5019217;28;20364;-81
2023/08/19 01:27:20;;;;;;;;;;;19.30;99.90;;;;;;5016636;28;20032;-80
2023/08/19 01:29:46;;;;;;;;;;;19.30;99.90;;;;;;5035967;28;20012;-81
2023/08/19 01:32:11;;;;;;;;;;;19.30;99.90;;;;;;5067705;28;19941;-81
2023/08/19 01:34:37;;;;;;;;;;;19.30;99.90;;;;;;5038597;28;19944;-81
2023/08/19 01:37:07;;;;;;;;;;;19.30;99.90;;;;;;5038359;28;19925;-80
2023/08/19 01:39:33;;;;;;;;;;;19.30;99.90;;;;;;5037287;28;19929;-80
2023/08/19 01:41:58;;;;;;;;;;;19.20;99.90;;;;;;5039822;28;20251;-81
2023/08/19 01:44:24;;;;;;;;;;;19.20;99.90;;;;;;5055574;28;20383;-81
2023/08/19 01:46:50;;;;;;;;;;;19.20;99.90;;;;;;5040566;28;19925;-81
2023/08/19 01:49:16;;;;;;;;;;;19.20;99.90;;;;;;5033886;28;20382;-81
2023/08/19 01:51:41;;;;;;;;;;;19.20;99.90;;;;;;5039817;28;19948;-80
2023/08/19 01:54:07;;;;;;;;;;;19.30;99.90;;;;;;5038882;28;19933;-81
2023/08/19 01:56:33;;;;;;;;;;;19.30;99.90;;;;;;5055717;28;19952;-81
2023/08/19 01:58:59;;;;;;;;;;;19.20;99.90;;;;;;5052753;28;20002;-80
2023/08/19 02:01:24;;;;;;;;;;;19.20;99.90;;;;;;5039206;28;19929;-80
2023/08/19 02:03:50;;;;;;;;;;;19.20;99.90;;;;;;5039636;28;19925;-80
2023/08/19 02:06:15;;;;;;;;;;;19.20;99.90;;;;;;5038205;28;19925;-80
2023/08/19 02:08:41;;;;;;;;;;;19.20;99.90;;;;;;5021527;28;20518;-80
2023/08/19 02:11:06;;;;;;;;;;;19.30;99.90;;;;;;5065005;28;19996;-80
2023/08/19 02:13:32;;;;;;;;;;;19.20;99.90;;;;;;5053531;28;19929;-80
2023/08/19 02:15:57;;;;;;;;;;;19.30;99.90;;;;;;5016468;28;19968;-80
2023/08/19 02:18:23;;;;;;;;;;;19.30;99.90;;;;;;5033675;28;19933;-80
2023/08/19 02:20:49;;;;;;;;;;;19.30;99.90;;;;;;5017331;28;19932;-80
2023/08/19 02:23:14;;;;;;;;;;;19.30;99.90;;;;;;5017016;28;19925;-80
2023/08/19 02:25:40;;;;;;;;;;;19.30;99.90;;;;;;5030873;28;19972;-80
2023/08/19 02:28:05;;;;;;;;;;;19.30;99.90;;;;;;5033173;28;19933;-81
2023/08/19 02:30:31;;;;;;;;;;;19.30;99.90;;;;;;5063340;28;19929;-81
2023/08/19 02:33:03;;;;;;;;;;;19.20;99.90;;;;;;5019552;28;19931;-81
2023/08/19 02:35:28;;;;;;;;;;;19.20;99.90;;;;;;5036042;28;19992;-81
2023/08/19 02:37:54;;;;;;;;;;;19.20;99.90;;;;;;5063636;28;19957;-81
2023/08/19 02:40:20;;;;;;;;;;;19.20;99.90;;;;;;5014581;28;20062;-80
2023/08/19 02:42:45;;;;;;;;;;;19.20;99.90;;;;;;5040168;28;19925;-80
2023/08/19 02:45:11;;;;;;;;;;;19.20;99.90;;;;;;5018515;28;19929;-80
2023/08/19 02:47:36;;;;;;;;;;;19.10;99.90;;;;;;5042132;28;20004;-81
2023/08/19 02:50:02;;;;;;;;;;;19.10;99.90;;;;;;5051285;28;20217;-81
2023/08/19 02:52:28;;;;;;;;;;;19.10;99.90;;;;;;5034443;28;20392;-81
2023/08/19 02:54:53;;;;;;;;;;;19.10;99.90;;;;;;5017188;28;20296;-81
2023/08/19 02:57:19;;;;;;;;;;;19.10;99.90;;;;;;5032248;28;19951;-81
2023/08/19 02:59:44;;;;;;;;;;;19.10;99.90;;;;;;5018917;28;19925;-81
2023/08/19 03:02:10;;;;;;;;;;;19.00;99.90;;;;;;5035153;28;19925;-81
2023/08/19 03:04:35;;;;;;;;;;;19.00;99.90;;;;;;5016796;28;19968;-81
2023/08/19 03:07:01;;;;;;;;;;;19.10;99.90;;;;;;5035010;28;19925;-81
2023/08/19 03:09:26;;;;;;;;;;;19.10;99.90;;;;;;5021758;28;19969;-80
2023/08/19 03:11:53;;;;;;;;;;;19.10;99.90;;;;;;5033344;28;19986;-81
2023/08/19 03:14:18;;;;;;;;;;;19.10;99.90;;;;;;5017234;28;20387;-80
2023/08/19 03:16:44;;;;;;;;;;;19.20;99.90;;;;;;5017935;28;19940;-81
2023/08/19 03:19:09;;;;;;;;;;;19.20;99.90;;;;;;5065166;28;19925;-81
2023/08/19 03:21:35;;;;;;;;;;;19.20;99.90;;;;;;5015477;28;19999;-80
2023/08/19 03:24:00;;;;;;;;;;;19.20;99.90;;;;;;5029075;28;19925;-80
2023/08/19 03:26:26;;;;;;;;;;;19.20;99.90;;;;;;5017523;28;19951;-81
2023/08/19 03:28:52;;;;;;;;;;;19.20;99.90;;;;;;5031758;28;19934;-81
2023/08/19 03:31:17;;;;;;;;;;;19.20;99.90;;;;;;5035000;28;19928;-81
2023/08/19 03:33:43;;;;;;;;;;;19.20;99.90;;;;;;5049625;28;19935;-80
2023/08/19 03:36:08;;;;;;;;;;;19.20;99.90;;;;;;5031661;28;19933;-80
2023/08/19 03:38:34;;;;;;;;;;;19.20;99.90;;;;;;5017296;28;19933;-80
2023/08/19 03:40:59;;;;;;;;;;;19.20;99.90;;;;;;5048777;28;20436;-80
2023/08/19 03:43:25;;;;;;;;;;;19.20;99.90;;;;;;5039007;28;19925;-80
2023/08/19 03:45:50;;;;;;;;;;;19.20;99.90;;;;;;5029039;28;19925;-80
2023/08/19 03:48:16;;;;;;;;;;;19.20;99.90;;;;;;5018404;28;19963;-80
2023/08/19 03:50:42;;;;;;;;;;;19.20;99.90;;;;;;5040591;28;19928;-80
2023/08/19 03:53:07;;;;;;;;;;;19.20;99.90;;;;;;5064371;28;19925;-80
2023/08/19 03:55:33;;;;;;;;;;;19.20;99.90;;;;;;5017389;28;20395;-78
2023/08/19 03:57:58;;;;;;;;;;;19.20;99.90;;;;;;5034423;28;19926;-80
2023/08/19 04:00:24;;;;;;;;;;;19.20;99.90;;;;;;5036289;28;19996;-79
2023/08/19 04:02:49;;;;;;;;;;;19.20;99.90;;;;;;5049184;28;19925;-80
2023/08/19 04:05:15;;;;;;;;;;;19.30;99.90;;;;;;5051520;28;19929;-80
2023/08/19 04:07:41;;;;;;;;;;;19.30;99.90;;;;;;5068350;28;19987;-80
2023/08/19 04:10:07;;;;;;;;;;;19.30;99.90;;;;;;5032979;28;20024;-80
2023/08/19 04:12:33;;;;;;;;;;;19.20;99.90;;;;;;5062725;28;19975;-80
2023/08/19 04:14:59;;;;;;;;;;;19.30;99.90;;;;;;5062055;28;19929;-80
2023/08/19 04:17:24;;;;;;;;;;;19.30;99.90;;;;;;5033163;28;19929;-81
2023/08/19 04:19:51;;;;;;;;;;;19.30;99.90;;;;;;5019075;28;19960;-81
2023/08/19 04:22:17;;;;;;;;;;;19.40;99.90;;;;;;5052709;28;19929;-80
2023/08/19 04:24:42;;;;;;;;;;;19.30;99.90;;;;;;5031635;28;20023;-81
2023/08/19 04:27:08;;;;;;;;;;;19.40;99.90;;;;;;5033737;28;20000;-80
2023/08/19 04:29:34;;;;;;;;;;;19.40;99.90;;;;;;5047293;28;19995;-80
2023/08/19 04:32:00;;;;;;;;;;;19.40;99.90;;;;;;5004565;28;19948;-80
2023/08/19 04:34:26;;;;;;;;;;;19.40;99.90;;;;;;5036693;28;19988;-81
2023/08/19 04:36:51;;;;;;;;;;;19.40;99.90;;;;;;5012926;28;19979;-80
2023/08/19 04:39:17;;;;;;;;;;;19.50;99.90;;;;;;5037031;28;19947;-81
2023/08/19 04:41:43;;;;;;;;;;;19.50;99.90;;;;;;5056129;28;19926;-80
2023/08/19 04:44:09;;;;;;;;;;;19.50;99.90;;;;;;5057481;28;19925;-80
2023/08/19 04:46:34;;;;;;;;;;;19.60;99.90;;;;;;5034769;28;19968;-80
2023/08/19 04:49:00;;;;;;;;;;;19.70;99.90;;;;;;5038994;28;20304;-80
2023/08/19 04:51:25;;;;;;;;;;;19.70;99.90;;;;;;5040934;28;19929;-81
2023/08/19 04:53:51;;;;;;;;;;;19.70;99.90;;;;;;5056715;28;19929;-80
2023/08/19 04:56:17;;;;;;;;;;;19.80;99.90;;;;;;5039842;28;19925;-81
2023/08/19 04:58:43;;;;;;;;;;;19.80;99.90;;;;;;5042027;28;19931;-80
2023/08/19 05:01:08;;;;;;;;;;;19.90;99.90;;;;;;5063185;28;20020;-81
2023/08/19 05:03:34;;;;;;;;;;;19.90;99.90;;;;;;5023048;28;19940;-80
2023/08/19 05:06:00;;;;;;;;;;;20.00;99.90;;;;;;5027751;28;20297;-80
2023/08/19 05:08:26;;;;;;;;;;;20.10;99.90;;;;;;5057109;28;19926;-80
2023/08/19 05:10:51;;;;;;;;;;;20.20;99.90;;;;;;5072619;28;19929;-80
2023/08/19 05:13:17;;;;;;;;;;;20.30;99.90;;;;;;5072786;28;19932;-80
2023/08/19 05:15:42;;;;;;;;;;;20.30;99.90;;;;;;5022187;28;19975;-80
2023/08/19 05:18:08;;;;;;;;;;;20.20;99.90;;;;;;5006696;28;19925;-80
2023/08/19 05:20:33;;;;;;;;;;;20.30;99.90;;;;;;5072997;28;19959;-80
2023/08/19 05:22:59;;;;;;;;;;;20.30;99.90;;;;;;5022148;28;19956;-80
2023/08/19 05:25:25;;;;;;;;;;;20.30;99.90;;;;;;5039478;28;19925;-80
2023/08/19 05:27:50;;;;;;;;;;;20.30;99.90;;;;;;5007037;28;19925;-80
2023/08/19 05:30:16;;;;;;;;;;;20.30;99.90;;;;;;5039842;28;20296;-80
2023/08/19 05:32:41;;;;;;;;;;;20.30;99.90;;;;;;5072785;28;19929;-80
2023/08/19 05:35:07;;;;;;;;;;;20.30;99.90;;;;;;5022553;28;19967;-80
2023/08/19 05:37:33;;;;;;;;;;;20.30;99.90;;;;;;5022301;28;19925;-80
2023/08/19 05:39:58;;;;;;;;;;;20.40;99.90;;;;;;5054800;28;19932;-80
2023/08/19 05:42:24;;;;;;;;;;;20.40;99.90;;;;;;5010339;28;19925;-80
2023/08/19 05:44:50;;;;;;;;;;;20.40;99.90;;;;;;5029704;28;19971;-80
2023/08/19 05:47:15;;;;;;;;;;;20.40;99.90;;;;;;5041750;28;19926;-80
2023/08/19 05:49:41;;;;;;;;;;;20.50;99.90;;;;;;5054776;28;19925;-80
2023/08/19 05:52:06;;;;;;;;;;;20.50;99.90;;;;;;5001013;28;19995;-80
2023/08/19 05:54:32;;;;;;;;;;;20.50;99.90;;;;;;5024363;28;19929;-80
2023/08/19 05:56:57;;;;;;;;;;;20.50;99.90;;;;;;5039280;28;19929;-80
2023/08/19 05:59:23;;;;;;;;;;;20.60;99.90;;;;;;5005999;28;19925;-80
2023/08/19 06:01:49;;;;;;;;;;;20.60;99.90;;;;;;5055014;28;19951;-80
2023/08/19 06:04:15;;;;;;;;;;;20.60;99.90;;;;;;5056258;28;19925;-80
2023/08/19 06:06:41;;;;;;;;;;;20.60;99.90;;;;;;5055206;28;20016;-80
2023/08/19 06:09:08;;;;;;;;;;;20.70;99.90;;;;;;5039811;28;19969;-80
2023/08/19 06:11:34;;;;;;;;;;;20.70;99.90;;;;;;5022607;28;20058;-80
2023/08/19 06:13:59;;;;;;;;;;;20.70;99.90;;;;;;5039128;28;19925;-80
2023/08/19 06:16:25;;;;;;;;;;;20.70;99.90;;;;;;5039323;28;19925;-80
2023/08/19 06:18:50;;;;;;;;;;;20.80;99.90;;;;;;5033867;28;19971;-80
2023/08/19 06:21:17;;;;;;;;;;;20.80;99.90;;;;;;5024789;28;19925;-80
2023/08/19 06:23:42;;;;;;;;;;;20.80;99.90;;;;;;5042451;28;19955;-80
2023/08/19 06:26:08;;;;;;;;;;;20.90;99.90;;;;;;5044506;28;20349;-80
2023/08/19 06:28:34;;;;;;;;;;;20.90;99.90;;;;;;5022783;28;19924;-80
2023/08/19 06:31:00;;;;;;;;;;;20.90;99.90;;;;;;5031176;28;20435;-80
2023/08/19 06:33:26;;;;;;;;;;;20.90;99.90;;;;;;5018216;28;19983;-80
2023/08/19 06:35:54;;;;;;;;;;;21.00;99.90;;;;;;5068194;28;19987;-80
2023/08/19 06:38:21;;;;;;;;;;;21.00;99.90;;;;;;5055566;28;19925;-79
2023/08/19 06:40:54;;;;;;;;;;;20.90;99.90;;;;;;5036003;28;19925;-80
2023/08/19 06:43:20;;;;;;;;;;;21.00;99.90;;;;;;5064862;28;19952;-80
2023/08/19 06:45:46;;;;;;;;;;;21.00;99.90;;;;;;5046462;28;19925;-79
2023/08/19 06:48:12;;;;;;;;;;;21.10;99.90;;;;;;5019662;28;19960;-80
2023/08/19 06:50:38;;;;;;;;;;;21.10;99.90;;;;;;5033188;28;19947;-80
2023/08/19 06:53:09;;;;;;;;;;;21.20;99.90;;;;;;5049805;28;19925;-80
2023/08/19 06:55:35;;;;;;;;;;;21.20;99.90;;;;;;5014126;28;19929;-80
2023/08/19 06:58:06;;;;;;;;;;;21.30;99.90;;;;;;5054457;28;19936;-80
2023/08/19 07:00:33;;;;;;;;;;;21.30;99.90;;;;;;5054352;28;19933;-80
2023/08/19 07:02:59;;;;;;;;;;;21.30;99.90;;;;;;5035935;28;19925;-80
2023/08/19 07:05:26;;;;;;;;;;;21.40;99.90;;;;;;5037728;28;19947;-80
2023/08/19 07:07:52;;;;;;;;;;;21.40;99.90;;;;;;5036305;28;19988;-80
2023/08/19 07:10:20;;;;;;;;;;;21.50;99.90;;;;;;5037514;28;20288;-80
2023/08/19 07:12:46;;;;;;;;;;;21.50;99.90;;;;;;5034287;28;19932;-80
2023/08/19 07:15:12;;;;;;;;;;;21.50;99.90;;;;;;5066036;28;19928;-79
2023/08/19 07:17:41;;;;;;;;;;;21.60;99.90;;;;;;5014366;28;19926;-80
2023/08/19 07:20:09;;;;;;;;;;;21.70;99.90;;;;;;5031389;28;19925;-79
2023/08/19 07:22:36;;;;;;;;;;;21.80;99.90;;;;;;5066814;28;20084;-80
2023/08/19 07:25:03;;;;;;;;;;;21.90;99.90;;;;;;5017203;28;19972;-80
2023/08/19 07:27:29;;;;;;;;;;;22.00;99.90;;;;;;5038463;28;20434;-80
2023/08/19 07:29:55;;;;;;;;;;;22.10;99.90;;;;;;5042203;28;20111;-80
2023/08/19 07:32:21;;;;;;;;;;;22.20;99.90;;;;;;5053592;28;19925;-79
2023/08/19 07:34:46;;;;;;;;;;;22.30;99.90;;;;;;5021268;28;19980;-80
2023/08/19 07:37:12;;;;;;;;;;;22.30;99.90;;;;;;5052079;28;19929;-80
2023/08/19 07:39:38;;;;;;;;;;;22.40;99.90;;;;;;5038955;28;19932;-80
2023/08/19 07:42:04;;;;;;;;;;;22.50;99.90;;;;;;5040507;28;19929;-80
2023/08/19 07:44:29;;;;;;;;;;;22.50;99.90;;;;;;5036586;28;19972;-79
2023/08/19 07:46:55;;;;;;;;;;;22.60;99.90;;;;;;5019088;28;20407;-79
2023/08/19 07:49:21;;;;;;;;;;;22.70;99.90;;;;;;5068122;28;19929;-80
2023/08/19 07:51:46;;;;;;;;;;;22.80;99.90;;;;;;5053421;28;19972;-80
2023/08/19 07:54:12;;;;;;;;;;;22.90;99.90;;;;;;5037238;28;20296;-80
2023/08/19 07:56:37;;;;;;;;;;;23.00;99.90;;;;;;5038294;28;19975;-79
2023/08/19 07:59:03;;;;;;;;;;;23.00;99.90;;;;;;5037736;28;19955;-80
2023/08/19 08:01:29;;;;;;;;;;;23.20;99.90;;;;;;5031380;28;20012;-80
2023/08/19 08:03:54;;;;;;;;;;;23.30;99.90;;;;;;5049147;28;19983;-80
2023/08/19 08:06:20;;;;;;;;;;;23.50;99.90;;;;;;5068525;28;19925;-79
2023/08/19 08:08:46;;;;;;;;;;;23.70;99.90;;;;;;5000921;28;19972;-80
2023/08/19 08:11:11;;;;;;;;;;;23.90;99.90;;;;;;5062442;28;19924;-80
2023/08/19 08:13:37;;;;;;;;;;;24.00;99.90;;;;;;5021104;28;19976;-80
2023/08/19 08:16:04;;;;;;;;;;;24.30;99.90;;;;;;5037394;28;20671;-80
2023/08/19 08:18:30;;;;;;;;;;;24.50;99.90;;;;;;5039266;28;19932;-80
2023/08/19 08:20:55;;;;;;;;;;;24.50;99.90;;;;;;5069247;28;19933;-80
2023/08/19 08:23:21;;;;;;;;;;;24.60;99.90;;;;;;5039423;28;19925;-80
2023/08/19 08:25:46;;;;;;;;;;;24.70;99.90;;;;;;5037638;28;19933;-85
2023/08/19 08:28:12;;;;;;;;;;;24.70;99.90;;;;;;5000439;28;20024;-85
2023/08/19 08:30:38;;;;;;;;;;;24.80;99.90;;;;;;5016220;28;20016;-85
2023/08/19 08:33:04;;;;;;;;;;;24.90;99.90;;;;;;5004690;28;19925;-86
2023/08/19 08:35:29;;;;;;;;;;;25.00;99.90;;;;;;5031749;28;19937;-86
2023/08/19 08:37:55;;;;;;;;;;;25.20;99.90;;;;;;5051797;28;19948;-86
2023/08/19 08:40:21;;;;;;;;;;;25.30;99.90;;;;;;5029246;28;19975;-86
2023/08/19 08:42:47;;;;;;;;;;;25.40;99.90;;;;;;5048115;28;19968;-86
2023/08/19 08:45:13;;;;;;;;;;;25.40;99.90;;;;;;5039253;28;19933;-86
2023/08/19 08:47:40;;;;;;;;;;;25.40;99.90;;;;;;5033800;28;19939;-87
2023/08/19 08:50:06;;;;;;;;;;;25.40;99.90;;;;;;5009478;28;19925;-88
2023/08/19 08:52:32;;;;;;;;;;;25.50;99.90;;;;;;5021729;28;20458;-89
2023/08/19 08:54:59;;;;;;;;;;;25.60;99.90;;;;;;5040463;28;19932;-88
2023/08/19 08:57:24;;;;;;;;;;;25.70;99.90;;;;;;5022894;28;19947;-88
2023/08/19 08:59:50;;;;;;;;;;;25.80;99.90;;;;;;5038797;28;19972;-88
2023/08/19 09:02:17;;;;;;;;;;;25.90;99.90;;;;;;5003763;28;19965;-89
2023/08/19 09:04:43;;;;;;;;;;;26.00;99.90;;;;;;5021062;28;20020;-90
2023/08/19 09:07:12;;;;;;;;;;;26.10;99.90;;;;;;5049250;28;19936;-89
2023/08/19 09:09:39;;;;;;;;;;;26.10;99.90;;;;;;5017823;28;19936;-89
2023/08/19 09:12:10;;;;;;;;;;;26.10;99.90;;;;;;5017985;28;19971;-88
2023/08/19 09:14:45;;;;;;;;;;;26.30;99.90;;;;;;5048508;28;19929;-88
2023/08/19 09:17:17;;;;;;;;;;;26.40;99.90;;;;;;5047936;28;19925;-90
2023/08/19 09:19:43;;;;;;;;;;;26.40;99.90;;;;;;5016345;28;19929;-90
2023/08/19 09:22:19;;;;;;;;;;;26.40;99.90;;;;;;5023912;28;20596;-90
2023/08/19 09:24:45;;;;;;;;;;;26.40;99.90;;;;;;5029432;28;19925;-90
2023/08/19 09:27:11;;;;;;;;;;;26.40;99.90;;;;;;5062526;28;19928;-92
2023/08/19 09:29:37;;;;;;;;;;;26.40;99.90;;;;;;5046301;28;19925;-90
2023/08/19 09:32:03;;;;;;;;;;;26.50;99.90;;;;;;5044955;28;19984;-91
2023/08/19 09:34:28;;;;;;;;;;;26.70;99.90;;;;;;5055017;28;20024;-91
2023/08/19 09:36:57;;;;;;;;;;;26.80;99.90;;;;;;5021569;28;19925;-91
2023/08/19 09:39:25;;;;;;;;;;;27.10;99.90;;;;;;5019312;28;20282;-90
2023/08/19 09:42:00;;;;;;;;;;;27.30;99.90;;;;;;5001379;28;19925;-92
2023/08/19 09:44:30;;;;;;;;;;;27.40;99.90;;;;;;5034455;28;19925;-89
2023/08/19 09:46:56;;;;;;;;;;;27.60;99.90;;;;;;5035825;28;21759;-90
2023/08/19 09:49:22;;;;;;;;;;;27.50;99.90;;;;;;5035818;28;20764;-90
2023/08/19 09:51:57;;;;;;;;;;;27.50;99.90;;;;;;5022617;28;19925;-91
2023/08/19 09:54:23;;;;;;;;;;;27.40;99.90;;;;;;5038262;28;19972;-91
2023/08/19 09:56:55;;;;;;;;;;;27.40;99.90;;;;;;5036793;28;19947;-90
2023/08/19 09:59:25;;;;;;;;;;;27.40;99.90;;;;;;5021556;28;19999;-90
2023/08/19 10:01:52;;;;;;;;;;;27.40;99.90;;;;;;5031470;28;20528;-90
2023/08/19 10:04:21;;;;;;;;;;;27.40;99.90;;;;;;5033894;28;20400;-89
2023/08/19 10:06:50;;;;;;;;;;;27.50;99.90;;;;;;5019686;28;19935;-76
2023/08/19 10:09:20;;;;;;;;;;;27.40;99.90;;;;;;5037362;28;19936;-76
2023/08/19 10:11:47;;;;;;;;;;;27.40;99.90;;;;;;5038559;28;19925;-76
2023/08/19 10:14:13;;;;;;;;;;;27.20;99.90;;;;;;5038514;28;19961;-76
2023/08/19 10:16:41;;;;;;;;;;;27.00;99.90;;;;;;5056251;28;19951;-76
2023/08/19 10:19:07;;;;;;;;;;;26.80;99.90;;;;;;5036453;28;19929;-76
2023/08/19 10:21:35;;;;;;;;;;;26.70;99.90;;;;;;5038165;28;19933;-76
2023/08/19 10:24:01;;;;;;;;;;;26.50;99.90;;;;;;5037020;28;19929;-76
2023/08/19 10:26:27;;;;;;;;;;;26.40;99.90;;;;;;5022344;28;19925;-76
2023/08/19 10:29:03;;;;;;;;;;;26.40;99.90;;;;;;5038944;28;19932;-76
2023/08/19 10:31:29;;;;;;;;;;;26.30;99.90;;;;;;5038727;28;20327;-76
2023/08/19 10:33:55;;;;;;;;;;;26.20;99.90;;;;;;5039254;28;19925;-77
2023/08/19 10:36:22;;;;;;;;;;;26.00;99.90;;;;;;5039162;28;19936;-76
2023/08/19 10:38:51;;;;;;;;;;;26.00;99.90;;;;;;5038462;28;19963;-76
2023/08/19 10:41:22;;;;;;;;;;;25.90;99.90;;;;;;5052696;28;19929;-76
2023/08/19 10:43:49;;;;;;;;;;;26.00;99.90;;;;;;5029859;28;19925;-77
2023/08/19 10:46:20;;;;;;;;;;;26.00;99.90;;;;;;5038982;28;19929;-77
2023/08/19 10:48:49;;;;;;;;;;;26.00;99.90;;;;;;5054610;28;20358;-76
2023/08/19 10:51:16;;;;;;;;;;;26.10;99.90;;;;;;5021288;28;19931;-77
2023/08/19 10:54:02;;;;;;;;;;;26.10;99.90;;;;;;5037271;28;19929;-76
2023/08/19 10:56:27;;;;;;;;;;;26.10;99.90;;;;;;5036751;28;19936;-75
2023/08/19 10:58:53;;;;;;;;;;;26.20;99.90;;;;;;5033571;28;19929;-76
2023/08/19 11:01:18;;;;;;;;;;;26.50;99.90;;;;;;5038238;28;20011;-75
2023/08/19 11:03:44;;;;;;;;;;;26.90;99.90;;;;;;5036277;28;19925;-76
2023/08/19 11:06:10;;;;;;;;;;;27.30;99.90;;;;;;5035384;28;19991;-76
2023/08/19 11:08:44;;;;;;;;;;;27.60;99.90;;;;;;5010879;28;19940;-76
2023/08/19 11:11:14;;;;;;;;;;;27.80;99.90;;;;;;5051837;28;19925;-76
2023/08/19 11:13:40;;;;;;;;;;;27.80;99.90;;;;;;5036685;28;20487;-77
2023/08/19 11:16:06;;;;;;;;;;;27.70;99.90;;;;;;5070724;28;19936;-76
2023/08/19 11:18:31;;;;;;;;;;;27.70;99.90;;;;;;5034932;28;19929;-76
2023/08/19 11:20:57;;;;;;;;;;;27.60;99.90;;;;;;5025970;28;19925;-76
2023/08/19 11:23:27;;;;;;;;;;;27.50;99.90;;;;;;5068199;28;19935;-76
2023/08/19 11:25:53;;;;;;;;;;;27.50;99.90;;;;;;5037755;28;19988;-76
2023/08/19 11:28:18;;;;;;;;;;;27.40;99.90;;;;;;5036768;28;19925;-75
2023/08/19 11:30:44;;;;;;;;;;;27.40;99.90;;;;;;5037656;28;20020;-76
2023/08/19 11:33:09;;;;;;;;;;;27.70;99.90;;;;;;5036717;28;19925;-77
2023/08/19 11:35:42;;;;;;;;;;;27.90;99.90;;;;;;5034668;28;19925;-76
2023/08/19 11:38:17;;;;;;;;;;;28.20;99.90;;;;;;5036712;28;19971;-76
2023/08/19 11:40:42;;;;;;;;;;;28.40;99.90;;;;;;5062153;28;20373;-76
2023/08/19 11:43:09;;;;;;;;;;;28.70;99.90;;;;;;5035776;28;19996;-76
2023/08/19 11:45:36;;;;;;;;;;;28.90;99.90;;;;;;5017344;28;20494;-76
2023/08/19 11:48:02;;;;;;;;;;;29.20;99.90;;;;;;5034704;28;20348;-76
2023/08/19 11:50:29;;;;;;;;;;;29.50;99.90;;;;;;5032028;28;20376;-77
2023/08/19 11:52:55;;;;;;;;;;;29.70;99.90;;;;;;5068094;28;19960;-77
2023/08/19 11:55:25;;;;;;;;;;;29.70;99.90;;;;;;5034470;28;20308;-77
2023/08/19 11:57:52;;;;;;;;;;;29.90;99.90;;;;;;5036248;28;19971;-76
2023/08/19 12:00:18;;;;;;;;;;;29.90;99.90;;;;;;5069114;28;19939;-76
2023/08/19 12:02:46;;;;;;;;;;;29.90;99.90;;;;;;5039836;28;19989;-76
2023/08/19 12:05:20;;;;;;;;;;;29.70;99.90;;;;;;5037220;28;20117;-76
2023/08/19 12:07:46;;;;;;;;;;;29.50;99.90;;;;;;5036865;28;19925;-75
2023/08/19 12:10:12;;;;;;;;;;;29.00;99.90;;;;;;5038301;28;20081;-76
2023/08/19 12:12:38;;;;;;;;;;;28.50;99.90;;;;;;5038919;28;19956;-76
2023/08/19 12:15:04;;;;;;;;;;;27.90;99.90;;;;;;5035317;28;19925;-76
2023/08/19 12:17:29;;;;;;;;;;;27.60;99.90;;;;;;5020272;28;19996;-76
2023/08/19 12:19:55;;;;;;;;;;;27.20;99.90;;;;;;5037009;28;20014;-76
2023/08/19 12:22:21;;;;;;;;;;;27.00;99.90;;;;;;5038543;28;19932;-76
2023/08/19 12:24:47;;;;;;;;;;;26.90;99.90;;;;;;5050083;28;19936;-76
2023/08/19 12:27:13;;;;;;;;;;;26.80;99.90;;;;;;5068660;28;19925;-76
2023/08/19 12:29:38;;;;;;;;;;;26.80;99.90;;;;;;5039563;28;19931;-76
2023/08/19 12:32:04;;;;;;;;;;;26.60;99.90;;;;;;5039168;28;20019;-76
2023/08/19 12:34:30;;;;;;;;;;;26.50;99.90;;;;;;5020702;28;19925;-76
2023/08/19 12:36:55;;;;;;;;;;;26.40;99.90;;;;;;5036798;28;19928;-76
2023/08/19 12:39:22;;;;;;;;;;;26.30;99.90;;;;;;5032745;28;20031;-75
2023/08/19 12:41:47;;;;;;;;;;;26.20;99.90;;;;;;5019884;28;19960;-75
2023/08/19 12:44:13;;;;;;;;;;;26.00;99.90;;;;;;5034861;28;19972;-76
2023/08/19 12:46:43;;;;;;;;;;;25.90;99.90;;;;;;5069630;28;19935;-76
2023/08/19 12:49:09;;;;;;;;;;;25.70;99.90;;;;;;5035089;28;19928;-76
2023/08/19 12:51:34;;;;;;;;;;;25.50;99.90;;;;;;5023029;28;19988;-76
2023/08/19 12:54:00;;;;;;;;;;;25.50;99.90;;;;;;5020056;28;19926;-75
2023/08/19 12:56:26;;;;;;;;;;;25.40;99.90;;;;;;5036922;28;20044;-76
2023/08/19 12:58:53;;;;;;;;;;;25.60;99.90;;;;;;5035718;28;19930;-76
2023/08/19 13:01:19;;;;;;;;;;;25.80;99.90;;;;;;5037527;28;19932;-75
2023/08/19 13:03:44;;;;;;;;;;;25.80;99.90;;;;;;5040056;28;19925;-76
2023/08/19 13:06:10;;;;;;;;;;;25.90;99.90;;;;;;5035539;28;19925;-76
2023/08/19 13:08:38;;;;;;;;;;;25.90;99.90;;;;;;5065310;28;19926;-75
2023/08/19 13:11:03;;;;;;;;;;;25.80;99.90;;;;;;5042867;28;19951;-75
2023/08/19 13:13:29;;;;;;;;;;;25.80;99.90;;;;;;5071108;28;19925;-76
2023/08/19 13:15:54;;;;;;;;;;;25.80;99.90;;;;;;5040271;28;19925;-76
2023/08/19 13:18:20;;;;;;;;;;;25.80;99.90;;;;;;5040046;28;19939;-76
2023/08/19 13:20:45;;;;;;;;;;;25.80;99.90;;;;;;5055802;28;19929;-76
2023/08/19 13:23:11;;;;;;;;;;;25.70;99.90;;;;;;5040105;28;19929;-76
2023/08/19 13:25:37;;;;;;;;;;;25.60;99.90;;;;;;5056083;28;19991;-76
2023/08/19 13:28:02;;;;;;;;;;;25.50;99.90;;;;;;5039224;28;19945;-76
2023/08/19 13:30:29;;;;;;;;;;;25.40;99.90;;;;;;5040162;28;19929;-76
2023/08/19 13:32:55;;;;;;;;;;;25.30;99.90;;;;;;5025612;28;20431;-76
2023/08/19 13:35:21;;;;;;;;;;;25.30;99.90;;;;;;5039889;28;19980;-76
2023/08/19 13:37:46;;;;;;;;;;;25.30;99.90;;;;;;5071769;28;19932;-76
2023/08/19 13:40:12;;;;;;;;;;;25.40;99.90;;;;;;5025270;28;20248;-76
2023/08/19 13:42:38;;;;;;;;;;;25.40;99.90;;;;;;5040831;28;20292;-76
2023/08/19 13:45:04;;;;;;;;;;;25.30;99.90;;;;;;5039078;28;19925;-76
2023/08/19 13:47:30;;;;;;;;;;;25.30;99.90;;;;;;5038347;28;19925;-76
2023/08/19 13:49:55;;;;;;;;;;;25.20;99.90;;;;;;5071910;28;19932;-76
2023/08/19 13:52:38;;;;;;;;;;;25.10;99.90;;;;;;5040639;28;19929;-77
2023/08/19 13:55:04;;;;;;;;;;;25.10;99.90;;;;;;5039365;28;19925;-76
2023/08/19 13:57:30;;;;;;;;;;;25.00;99.90;;;;;;5033242;28;19932;-76
2023/08/19 13:59:56;;;;;;;;;;;25.00;99.90;;;;;;5070183;28;19940;-76
2023/08/19 14:02:21;;;;;;;;;;;24.90;99.90;;;;;;5022205;28;19925;-77
2023/08/19 14:04:47;;;;;;;;;;;24.80;99.90;;;;;;5039480;28;19980;-76
2023/08/19 14:07:12;;;;;;;;;;;24.80;99.90;;;;;;5038756;28;19929;-76
2023/08/19 14:09:38;;;;;;;;;;;24.70;99.90;;;;;;5039487;28;20019;-76
2023/08/19 14:12:03;;;;;;;;;;;24.70;99.90;;;;;;5027888;28;19945;-76